ΕΜΥ, Εθνική Μετεωρολογική Υπηρεσία - Δελτία Καιρού, Προγνώσεις

ΑΕΡΟΝΑΥΤΙΛΙΑ

GREEK AIRPORTS CODES

LGSO 212020Z AUTO 03006KT 330V060 //// // ////// 13/05 Q1023 RERA RMK 0.0MM=

EUROPEAN AIRPORTS CODES

LFPO 212030Z 21015G26KT 8000 -RADZ BKN008 10/09 Q1007 NOSIG=